Merrittstown, PA (15463)

10:42 AM EDT on July 04, 2015 (GMT -0400)
HillTop Rices Landing | | Change Station
CLOSE
Current Station
Personal Weather Station
Location: Rices Landing, PA
Elevation: 1118 ft
Nearby Weather Stations

Elev 1118 ft 39.93 °N, 79.95 °W | Updated 2 seconds ago

Overcast
Overcast
68.3 °F
Feels Like 68.3 °F
N
1.0
Wind Variable Wind from NW
Gusts 6.0 mph

Today
High -- | Low -- °F
--% Chance of Precip.
Yesterday
High -- | Low -- °F
Precip. -- in
5:55 AM 8:51 PM
Waning Gibbous, 92% visible
Pressure 29.96 in
Visibility 10.0 miles
Clouds Scattered Clouds 1000 ft
Mostly Cloudy 1800 ft
Overcast 2600 ft
Dew Point 66 °F
Humidity 94%
Rainfall 0.13 in
Snow Depth Not available.
UV 2 out of 12
Pollen .50 out of 12
Air Quality Not available.
Flu Activity Not available.
SPECI KMGW 041429Z VRB05KT 10SM SCT010 BKN018 OVC026 22/17 A2996 RMK AO2 T02170172

More Conditions Fewer Conditions

Pressure 29.96 in
Visibility 10.0 miles
Clouds Scattered Clouds 1000 ft
Mostly Cloudy 1800 ft
Overcast 2600 ft
Dew Point 66 °F
Humidity 94%
Rainfall 0.13 in
Snow Depth Not available.
UV 2 out of 12
Pollen .50 out of 12
Air Quality Not available.
Flu Activity Not available.
SPECI KMGW 041429Z VRB05KT 10SM SCT010 BKN018 OVC026 22/17 A2996 RMK AO2 T02170172

More Conditions Fewer Conditions

10-Day Weather Forecast

×

Almanac

Astronomy

Jul. 04, 2015 Rise Set
Actual Time
Civil Twilight
Nautical Twilight
Astronomical Twilight
Moon
Length of Visible Light
Length of Day
Tomorrow will be .
, % of the Moon is Illuminated

Today's Extremes

State Highs State Lows

Community

WunderPhotos

Upload Photos

1,834,982 photos uploaded!

WunderBlogs® & News

Nearby

Air Quality

  Air Quality AQ Index Pollutant
Not available.

Snow Depth

Station Depth Elevation

Earthquake Activity

City Distance Mag. Time & Date
Minimum magnitude displayed is 2.5.

Coastal Water Temperatures

Place Temperature

Stations

Nearby Weather Stations

Station Location Temp. Windchill Dew Point Humidity Wind Precip. Elev Updated Type